createdAt,value
2023-04-29T00:00:35.857Z,100475.02
2023-04-29T00:04:04.097Z,100476.84
2023-04-29T00:07:26.925Z,100480.00
2023-04-29T00:10:54.639Z,100483.05
2023-04-29T00:14:22.543Z,100476.09
2023-04-29T00:17:50.560Z,100471.95
2023-04-29T00:21:18.202Z,100470.67
2023-04-29T00:24:45.873Z,100466.94
2023-04-29T00:28:01.659Z,100468.16
2023-04-29T00:31:29.727Z,100465.83
2023-04-29T00:34:38.642Z,100466.55
2023-04-29T00:38:06.666Z,100461.88
2023-04-29T00:41:14.615Z,100458.91
2023-04-29T00:44:42.447Z,100456.48
2023-04-29T00:47:40.017Z,100455.31
2023-04-29T00:51:03.670Z,100457.67
2023-04-29T00:54:34.205Z,100450.80
2023-04-29T00:58:01.952Z,100448.14
2023-04-29T01:01:25.007Z,100448.38
2023-04-29T01:04:34.784Z,100457.91
2023-04-29T01:07:59.010Z,100456.64
2023-04-29T01:11:26.773Z,100461.90
2023-04-29T01:14:54.583Z,100460.89
2023-04-29T01:18:22.486Z,100468.31
2023-04-29T01:21:50.243Z,100462.92
2023-04-29T01:25:18.070Z,100459.34
2023-04-29T01:28:48.827Z,100457.10
2023-04-29T01:31:59.924Z,100453.14
2023-04-29T01:35:28.206Z,100451.64
2023-04-29T01:38:38.009Z,100448.40
2023-04-29T01:41:46.925Z,100449.63
2023-04-29T01:44:54.689Z,100443.95
2023-04-29T01:48:22.590Z,100436.98
2023-04-29T01:51:46.536Z,100437.02
2023-04-29T01:54:54.782Z,100432.23
2023-04-29T01:58:23.055Z,100429.88
2023-04-29T02:01:50.968Z,100429.55
2023-04-29T02:05:00.305Z,100428.46
2023-04-29T02:08:28.506Z,100432.31
2023-04-29T02:11:56.201Z,100431.41
2023-04-29T02:15:08.300Z,100430.67
2023-04-29T02:18:36.354Z,100428.14
2023-04-29T02:22:04.381Z,100433.23
2023-04-29T02:25:32.226Z,100432.77
2023-04-29T02:28:41.304Z,100436.92
2023-04-29T02:32:04.816Z,100441.70
2023-04-29T02:35:28.804Z,100441.73
2023-04-29T02:38:56.500Z,100445.16
2023-04-29T02:42:24.488Z,100446.91
2023-04-29T02:45:48.125Z,100441.38
2023-04-29T02:49:04.157Z,100445.73
2023-04-29T02:52:31.935Z,100444.95
2023-04-29T02:55:59.667Z,100440.45
2023-04-29T02:59:27.412Z,100436.10
2023-04-29T03:02:55.294Z,100430.37
2023-04-29T03:06:22.790Z,100428.69
2023-04-29T03:09:50.912Z,100433.73
2023-04-29T03:13:01.796Z,100432.75
2023-04-29T03:16:29.572Z,100426.45
2023-04-29T03:19:57.302Z,100425.66
2023-04-29T03:23:25.140Z,100420.68
2023-04-29T03:26:53.146Z,100416.48
2023-04-29T03:30:21.547Z,100420.44
2023-04-29T03:33:49.363Z,100418.20
2023-04-29T03:37:17.138Z,100414.29
2023-04-29T03:40:48.363Z,100419.02
2023-04-29T03:44:16.234Z,100418.42
2023-04-29T03:47:43.924Z,100418.86
2023-04-29T03:51:11.540Z,100419.10
2023-04-29T03:54:45.791Z,100425.16
2023-04-29T03:58:13.517Z,100424.59
2023-04-29T04:01:41.285Z,100429.95
2023-04-29T04:04:30.495Z,100433.45
2023-04-29T04:07:58.025Z,100433.38
2023-04-29T04:10:35.204Z,100430.53
2023-04-29T04:14:17.965Z,100436.56
2023-04-29T04:17:06.791Z,100444.44
2023-04-29T04:20:34.879Z,100446.70
2023-04-29T04:24:02.676Z,100446.11
2023-04-29T04:27:30.426Z,100448.46
2023-04-29T04:31:04.631Z,100450.05
2023-04-29T04:34:32.235Z,100451.48
2023-04-29T04:37:59.950Z,100450.14
2023-04-29T04:41:27.562Z,100439.59
2023-04-29T04:44:55.311Z,100436.95
2023-04-29T04:48:23.249Z,100431.55
2023-04-29T04:51:51.206Z,100430.95
2023-04-29T04:55:00.098Z,100434.17
2023-04-29T04:58:27.804Z,100431.66
2023-04-29T05:01:55.500Z,100432.22
2023-04-29T05:05:23.271Z,100438.55
2023-04-29T05:08:51.026Z,100437.81
2023-04-29T05:12:00.546Z,100436.25
2023-04-29T05:15:28.304Z,100439.38
2023-04-29T05:18:56.538Z,100434.49
2023-04-29T05:22:19.097Z,100438.74
2023-04-29T05:25:43.295Z,100437.27
2023-04-29T05:29:10.892Z,100435.91
2023-04-29T05:32:38.751Z,100433.25
2023-04-29T05:36:06.784Z,100431.60
2023-04-29T05:39:16.712Z,100436.69
2023-04-29T05:42:38.104Z,100432.46
2023-04-29T05:46:06.403Z,100430.17
2023-04-29T05:49:15.267Z,100428.94
2023-04-29T05:52:43.002Z,100430.20
2023-04-29T05:56:10.729Z,100435.44
2023-04-29T05:59:38.488Z,100441.98
2023-04-29T06:03:06.329Z,100437.61
2023-04-29T06:06:14.635Z,100438.70
2023-04-29T06:09:42.704Z,100436.48
2023-04-29T06:12:31.383Z,100440.08
2023-04-29T06:15:59.185Z,100441.70
2023-04-29T06:19:26.971Z,100441.08
2023-04-29T06:22:54.803Z,100445.95
2023-04-29T06:26:22.529Z,100448.45
2023-04-29T06:29:50.246Z,100450.84
2023-04-29T06:33:17.945Z,100452.02
2023-04-29T06:36:45.571Z,100446.96
2023-04-29T06:40:12.335Z,100440.45
2023-04-29T06:43:47.346Z,100431.05
2023-04-29T06:47:17.004Z,100424.66
2023-04-29T06:50:53.636Z,100425.54
2023-04-29T06:54:21.499Z,100430.77
2023-04-29T06:57:49.187Z,100432.01
2023-04-29T07:01:17.073Z,100433.40
2023-04-29T07:04:44.935Z,100434.98
2023-04-29T07:08:12.938Z,100435.42
2023-04-29T07:11:40.929Z,100446.08
2023-04-29T07:15:08.584Z,100448.81
2023-04-29T07:18:36.344Z,100443.48
2023-04-29T07:22:04.218Z,100447.71
2023-04-29T07:25:32.111Z,100447.55
2023-04-29T07:28:59.924Z,100456.02
2023-04-29T07:32:27.603Z,100456.44
2023-04-29T07:35:55.141Z,100456.14
2023-04-29T07:39:03.624Z,100455.83
2023-04-29T07:42:31.304Z,100457.54
2023-04-29T07:45:59.330Z,100453.23
2023-04-29T07:49:26.947Z,100447.45
2023-04-29T07:52:54.781Z,100445.02
2023-04-29T07:56:23.012Z,100442.45
2023-04-29T07:59:50.667Z,100446.12
2023-04-29T08:03:21.741Z,100449.27
2023-04-29T08:06:49.295Z,100444.24
2023-04-29T08:10:16.974Z,100442.77
2023-04-29T08:13:45.395Z,100442.79
2023-04-29T08:17:13.136Z,100441.39
2023-04-29T08:20:21.752Z,100440.56
2023-04-29T08:23:49.704Z,100438.98
2023-04-29T08:27:17.589Z,100442.15
2023-04-29T08:30:45.542Z,100442.19
2023-04-29T08:34:13.158Z,100439.16
2023-04-29T08:37:40.903Z,100438.45
2023-04-29T08:41:08.774Z,100438.27
2023-04-29T08:44:36.930Z,100440.03
2023-04-29T08:48:04.783Z,100439.84
2023-04-29T08:51:32.855Z,100436.97
2023-04-29T08:54:41.610Z,100434.41
2023-04-29T08:58:09.504Z,100434.15
2023-04-29T09:01:37.565Z,100426.48
2023-04-29T09:05:05.402Z,100427.27
2023-04-29T09:08:33.141Z,100428.65
2023-04-29T09:12:01.031Z,100426.87
2023-04-29T09:15:28.946Z,100427.13
2023-04-29T09:18:56.632Z,100426.89
2023-04-29T09:22:05.187Z,100419.07
2023-04-29T09:25:33.038Z,100421.74
2023-04-29T09:28:41.866Z,100419.98
2023-04-29T09:32:09.733Z,100426.23
2023-04-29T09:35:37.579Z,100428.14
2023-04-29T09:39:05.688Z,100427.42
2023-04-29T09:42:33.695Z,100424.26
2023-04-29T09:46:01.749Z,100425.08
2023-04-29T09:49:29.398Z,100421.73
2023-04-29T09:52:57.111Z,100422.11
2023-04-29T09:56:24.775Z,100418.34
2023-04-29T09:59:33.299Z,100418.77
2023-04-29T10:03:01.136Z,100413.19
2023-04-29T10:06:28.819Z,100411.92
2023-04-29T10:09:56.717Z,100409.20
2023-04-29T10:13:24.524Z,100408.80
2023-04-29T10:16:52.701Z,100407.85
2023-04-29T10:20:20.472Z,100405.88
2023-04-29T10:23:48.132Z,100399.96
2023-04-29T10:27:16.001Z,100397.83
2023-04-29T10:30:45.647Z,100392.69
2023-04-29T10:34:01.582Z,100387.61
2023-04-29T10:37:29.385Z,100384.52
2023-04-29T10:40:57.192Z,100389.58
2023-04-29T10:44:18.797Z,100380.61
2023-04-29T10:47:46.615Z,100374.78
2023-04-29T10:50:54.332Z,100365.55
2023-04-29T10:53:59.912Z,100360.66
2023-04-29T10:57:28.072Z,100363.73
2023-04-29T11:00:25.592Z,100366.27
2023-04-29T11:03:53.449Z,100363.10
2023-04-29T11:07:21.369Z,100363.60
2023-04-29T11:10:30.279Z,100365.41
2023-04-29T11:13:20.187Z,100363.25
2023-04-29T11:16:28.610Z,100358.66
2023-04-29T11:19:37.433Z,100355.94
2023-04-29T11:22:36.558Z,100355.33
2023-04-29T11:25:48.469Z,100349.98
2023-04-29T11:28:38.170Z,100346.06
2023-04-29T11:32:05.982Z,100343.23
2023-04-29T11:35:02.166Z,100337.39
2023-04-29T11:38:30.035Z,100335.08
2023-04-29T11:41:57.657Z,100334.66
2023-04-29T11:45:25.751Z,100332.42
2023-04-29T11:48:49.925Z,100334.97
2023-04-29T11:51:58.029Z,100332.38
2023-04-29T11:55:07.052Z,100328.31
2023-04-29T11:58:34.820Z,100327.66
2023-04-29T12:02:03.043Z,100327.65
2023-04-29T12:05:30.867Z,100325.16
2023-04-29T12:08:20.097Z,100325.00
2023-04-29T12:11:47.678Z,100321.40
2023-04-29T12:14:59.428Z,100321.71
2023-04-29T12:18:08.464Z,100318.80
2023-04-29T12:21:36.193Z,100316.77
2023-04-29T12:25:04.162Z,100311.45
2023-04-29T12:28:28.942Z,100305.07
2023-04-29T12:31:56.815Z,100302.92
2023-04-29T12:34:46.783Z,100301.20
2023-04-29T12:38:14.800Z,100306.67
2023-04-29T12:41:42.599Z,100296.31
2023-04-29T12:44:52.473Z,100292.20
2023-04-29T12:47:41.445Z,100288.75
2023-04-29T12:51:09.266Z,100284.23
2023-04-29T12:54:17.115Z,100285.09
2023-04-29T12:57:44.801Z,100279.89
2023-04-29T13:00:57.265Z,100279.90
2023-04-29T13:03:47.183Z,100271.67
2023-04-29T13:06:58.142Z,100270.59
2023-04-29T13:13:07.666Z,100261.31
2023-04-29T13:16:23.569Z,100255.39
2023-04-29T13:19:48.127Z,100256.33
2023-04-29T13:23:03.084Z,100252.43
2023-04-29T13:26:31.229Z,100249.48
2023-04-29T13:29:37.403Z,100248.80
2023-04-29T13:32:53.820Z,100245.03
2023-04-29T13:36:14.086Z,100244.21
2023-04-29T13:39:19.943Z,100242.86
2023-04-29T13:42:27.186Z,100243.38
2023-04-29T13:45:55.303Z,100238.27
2023-04-29T13:49:31.078Z,100234.31
2023-04-29T13:53:14.271Z,100235.36
2023-04-29T13:56:40.846Z,100233.35
2023-04-29T14:02:26.477Z,100229.77
2023-04-29T14:05:34.732Z,100231.02
2023-04-29T14:08:42.991Z,100221.71
2023-04-29T14:11:51.221Z,100219.58
2023-04-29T14:14:28.393Z,100215.40
2023-04-29T14:17:27.281Z,100212.89
2023-04-29T14:20:35.056Z,100216.80
2023-04-29T14:23:26.616Z,100215.39
2023-04-29T14:26:27.699Z,100214.30
2023-04-29T14:29:16.469Z,100212.10
2023-04-29T14:32:22.070Z,100208.86
2023-04-29T14:35:12.312Z,100207.30
2023-04-29T14:38:19.806Z,100205.77
2023-04-29T14:41:36.661Z,100204.96
2023-04-29T14:44:26.838Z,100198.49
2023-04-29T14:47:15.277Z,100199.04
2023-04-29T14:50:11.547Z,100198.88
2023-04-29T14:53:04.925Z,100198.71
2023-04-29T14:55:36.796Z,100195.58
2023-04-29T14:58:45.418Z,100194.25
2023-04-29T15:01:25.440Z,100195.90
2023-04-29T15:04:33.850Z,100199.66
2023-04-29T15:08:01.585Z,100201.68
2023-04-29T15:11:22.664Z,100199.60
2023-04-29T15:14:30.734Z,100198.04
2023-04-29T15:17:35.770Z,100201.54
2023-04-29T15:20:48.692Z,100199.05
2023-04-29T15:24:01.106Z,100201.51
2023-04-29T15:27:28.752Z,100200.05
2023-04-29T15:30:33.129Z,100199.56
2023-04-29T15:34:00.895Z,100201.52
2023-04-29T15:37:28.694Z,100189.55
2023-04-29T15:40:56.454Z,100187.88
2023-04-29T15:44:06.473Z,100194.92
2023-04-29T15:47:22.876Z,100197.51
2023-04-29T15:50:07.441Z,100195.21
2023-04-29T15:53:16.165Z,100198.91
2023-04-29T15:56:31.923Z,100197.04
2023-04-29T15:59:25.706Z,100191.84
2023-04-29T16:02:18.189Z,100191.01
2023-04-29T16:05:26.720Z,100193.02
2023-04-29T16:08:35.199Z,100201.84
2023-04-29T16:11:39.326Z,100204.39
2023-04-29T16:14:51.593Z,100208.52
2023-04-29T16:18:19.466Z,100212.75
2023-04-29T16:21:07.857Z,100212.92
2023-04-29T16:23:56.755Z,100212.86
2023-04-29T16:27:12.505Z,100215.34
2023-04-29T16:30:17.284Z,100211.22
2023-04-29T16:33:23.786Z,100204.27
2023-04-29T16:36:23.376Z,100209.69
2023-04-29T16:39:33.384Z,100210.02
2023-04-29T16:42:12.093Z,100210.96
2023-04-29T16:45:23.148Z,100210.08
2023-04-29T16:48:17.743Z,100214.46
2023-04-29T16:51:34.555Z,100215.31
2023-04-29T16:55:02.387Z,100214.27
2023-04-29T16:58:19.934Z,100221.86
2023-04-29T17:01:36.016Z,100223.63
2023-04-29T17:05:03.627Z,100217.40
2023-04-29T17:08:12.377Z,100216.48
2023-04-29T17:11:35.943Z,100218.81
2023-04-29T17:14:26.612Z,100217.21
2023-04-29T17:17:51.528Z,100218.30
2023-04-29T17:21:14.977Z,100214.85
2023-04-29T17:24:23.751Z,100218.00
2023-04-29T17:27:51.590Z,100219.62
2023-04-29T17:31:19.390Z,100221.60
2023-04-29T17:34:29.216Z,100220.88
2023-04-29T17:37:56.968Z,100224.70
2023-04-29T17:41:06.359Z,100222.77
2023-04-29T17:44:30.150Z,100224.99
2023-04-29T17:47:58.011Z,100221.39
2023-04-29T17:51:25.549Z,100225.70
2023-04-29T17:54:53.466Z,100226.38
2023-04-29T17:58:21.565Z,100226.79
2023-04-29T18:01:49.253Z,100226.70
2023-04-29T18:05:16.906Z,100227.09
2023-04-29T18:08:44.695Z,100228.50
2023-04-29T18:12:12.465Z,100231.93
2023-04-29T18:15:40.277Z,100234.86
2023-04-29T18:19:08.146Z,100232.02
2023-04-29T18:22:36.078Z,100234.61
2023-04-29T18:26:03.795Z,100237.23
2023-04-29T18:29:31.523Z,100235.91
2023-04-29T18:32:59.310Z,100236.10
2023-04-29T18:36:27.452Z,100235.84
2023-04-29T18:39:55.402Z,100239.82
2023-04-29T18:43:08.011Z,100245.20
2023-04-29T18:46:36.168Z,100244.09
2023-04-29T18:50:03.817Z,100245.04
2023-04-29T18:53:31.720Z,100242.30
2023-04-29T18:56:40.735Z,100241.67
2023-04-29T19:00:08.417Z,100248.56
2023-04-29T19:03:36.292Z,100243.94
2023-04-29T19:07:06.492Z,100242.58
2023-04-29T19:10:34.612Z,100240.04
2023-04-29T19:14:02.443Z,100246.45
2023-04-29T19:17:30.896Z,100248.02
2023-04-29T19:20:54.432Z,100248.33
2023-04-29T19:24:03.142Z,100257.65
2023-04-29T19:27:31.068Z,100251.09
2023-04-29T19:30:31.081Z,100252.57
2023-04-29T19:33:40.827Z,100249.94
2023-04-29T19:37:08.848Z,100251.60
2023-04-29T19:40:36.741Z,100247.03
2023-04-29T19:43:45.545Z,100244.92
2023-04-29T19:47:13.496Z,100244.76
2023-04-29T19:50:28.966Z,100250.22
2023-04-29T19:53:42.551Z,100250.22
2023-04-29T19:56:59.095Z,100246.98
2023-04-29T20:00:26.952Z,100249.73
2023-04-29T20:03:54.619Z,100252.28
2023-04-29T20:07:22.259Z,100248.54
2023-04-29T20:10:50.063Z,100247.73
2023-04-29T20:14:18.075Z,100245.10
2023-04-29T20:17:46.071Z,100246.13
2023-04-29T20:20:54.833Z,100249.84
2023-04-29T20:24:22.509Z,100249.88
2023-04-29T20:27:50.211Z,100249.43
2023-04-29T20:31:18.114Z,100249.95
2023-04-29T20:34:45.866Z,100247.36
2023-04-29T20:37:54.794Z,100245.86
2023-04-29T20:41:22.464Z,100244.32
2023-04-29T20:44:50.134Z,100249.27
2023-04-29T20:48:17.880Z,100258.50
2023-04-29T20:51:41.594Z,100256.23
2023-04-29T20:55:09.390Z,100256.96
2023-04-29T20:58:37.138Z,100257.63
2023-04-29T21:02:04.781Z,100259.64
2023-04-29T21:05:32.730Z,100260.20
2023-04-29T21:09:00.493Z,100260.66
2023-04-29T21:12:05.882Z,100264.08
2023-04-29T21:15:33.663Z,100261.72
2023-04-29T21:19:01.351Z,100262.69
2023-04-29T21:22:29.108Z,100266.76
2023-04-29T21:25:56.867Z,100266.71
2023-04-29T21:29:24.511Z,100265.75
2023-04-29T21:32:33.428Z,100268.36
2023-04-29T21:36:01.025Z,100273.30
2023-04-29T21:39:28.662Z,100275.10
2023-04-29T21:42:56.596Z,100273.92
2023-04-29T21:46:05.887Z,100274.30
2023-04-29T21:49:32.310Z,100272.10
2023-04-29T21:52:48.117Z,100273.67
2023-04-29T21:55:56.343Z,100275.70
2023-04-29T21:59:13.291Z,100279.86
2023-04-29T22:02:22.370Z,100286.92
2023-04-29T22:05:31.462Z,100284.89
2023-04-29T22:08:47.581Z,100285.55
2023-04-29T22:12:15.751Z,100290.11
2023-04-29T22:15:43.530Z,100287.73
2023-04-29T22:19:11.889Z,100288.64
2023-04-29T22:22:27.934Z,100289.03
2023-04-29T22:25:36.875Z,100287.10
2023-04-29T22:29:04.710Z,100285.41
2023-04-29T22:32:32.538Z,100283.16
2023-04-29T22:36:00.626Z,100278.71
2023-04-29T22:39:28.704Z,100275.42
2023-04-29T22:42:38.408Z,100275.02
2023-04-29T22:46:06.330Z,100269.98
2023-04-29T22:49:34.525Z,100265.84
2023-04-29T22:53:02.421Z,100267.45
2023-04-29T22:56:11.216Z,100268.52
2023-04-29T22:59:38.953Z,100266.15
2023-04-29T23:03:06.844Z,100264.46
2023-04-29T23:06:34.601Z,100266.80
2023-04-29T23:09:43.516Z,100266.11
2023-04-29T23:13:11.235Z,100264.14
2023-04-29T23:16:39.037Z,100266.49
2023-04-29T23:20:06.928Z,100267.66
2023-04-29T23:23:34.773Z,100262.23
2023-04-29T23:27:02.600Z,100258.34
2023-04-29T23:30:30.254Z,100261.74
2023-04-29T23:33:58.113Z,100262.07
2023-04-29T23:37:25.896Z,100264.52
2023-04-29T23:40:53.617Z,100265.19
2023-04-29T23:44:21.528Z,100260.16
2023-04-29T23:47:49.502Z,100260.60
2023-04-29T23:51:17.549Z,100263.16
2023-04-29T23:54:45.235Z,100259.52
2023-04-29T23:58:13.113Z,100260.71
